Tamuning, GU

10:53 AM ChST on October 23, 2019 (GMT +1000)
Maite | | Change Station

Elev 140 ft 13.48 °N, 144.76 °E | Updated 1 minute ago

Partly Cloudy
Partly Cloudy
89.2 °F
Feels Like 106 °F
N
4
Wind Variable Wind from SE
Gusts 11.0 mph

Today
High -- | Low -- °F
--% Chance of Precip.
Yesterday
High -- | Low -- °F
Precip. -- in
Pressure 29.87 in
Visibility 10.0 miles
Clouds Few 2400 ft
Heat Index 106 °F
Dew Point 79 °F
Humidity 73%
Rainfall 0.00 in
Snow Depth Not available.
6:12 AM 5:57 PM
Waning Crescent, 33% visible
METAR PGUM 222354Z 11008KT 090V160 10SM FEW024 29/24 A2990 RMK AO2 SLP115 T02940239 10300 20256 51013
Pressure 29.87 in
Visibility 10.0 miles
Clouds Few 2400 ft
Heat Index 106 °F
Dew Point 79 °F
Humidity 73%
Rainfall 0.00 in
Snow Depth Not available.
6:12 AM 5:57 PM
Waning Crescent, 33% visible
METAR PGUM 222354Z 11008KT 090V160 10SM FEW024 29/24 A2990 RMK AO2 SLP115 T02940239 10300 20256 51013

Get Severe Weather Alerts

Thanks for signing up!

Be on the lookout for a verification email in your inbox.

You'll start receiving the daily forecast at 6 AM.

×

10-Day Weather Forecast

Almanac

Astronomy

Oct. 23, 2019 Rise Set
Actual Time
Civil Twilight
Nautical Twilight
Astronomical Twilight
Moon
Length of Visible Light
Length of Day
Tomorrow will be .
, % of the Moon is Illuminated

Today's Extremes

State Highs State Lows

Community

WunderPhotos

Category 6

Welcome to Category 6. This is the collective home for Weather Underground's featured writeups by Dr. Jeff Masters (right), Bob Henson (left), Chris Burt, and other regular contributors.

Nearby

Air Quality

  Air Quality AQ Index Pollutant
Not available.

Snow Depth

Station Depth Elevation

Earthquake Activity

City Distance Mag. Time & Date
Minimum magnitude displayed is 2.5.

Coastal Water Temperatures

Place Temperature

Stations

Nearby Weather Stations

Station Location Temp. Windchill Dew Point Humidity Wind Precip. Elev Updated Type
                   

Watches & Warnings

There are currently no watches in effect.